INFORMACIÓN METAR y TAF
METAR FOR SECU
ADDS - METARS form results

(0004 UTC 19 October 2019)
Data provider http://aviationweather.gov/metar/data/
 
METAR text: SECU 190000Z 23008KT 9999 SCT010 BKN030 15/12 Q1024
Conditions at: SECU (CUENCA/MARISCAL , EC) observed 0000 UTC 19 October 2019
Temperature: 15.0°C (59°F)
Dewpoint: 12.0°C (54°F) [RH = 82%]
Pressure (altimeter): 30.24 inches Hg (1024.0 mb)
Winds: from the SW (230 degrees) at 9 MPH (8 knots; 4.1 m/s)
Visibility: 6 or more miles (10+ km)
Ceiling: 3000 feet AGL
Clouds: scattered clouds at 1000 feet AGL
broken clouds at 3000 feet AGL
Weather: no significant weather observed at this time

 MAPA DE AEROPUERTO

 INFORMACIÓN DE PISTA
Pista 05 Longitud 6234 ft Ancho 118 ft
Elevación 8306 ft Umbral desplazado 0 ft Rumbo de pista 52
Pista 23 Longitud 6234 ft Ancho 118 ft
Elevación 8256 ft Umbral desplazado 0 ft Rumbo de pista 232

 FRECUANCIAS DEL AEROPUERTO
Tipo APP Nombre APP/TWR Frecuencia 122.3 MHZ
Tipo GND Nombre GND Frecuencia 121.9 MHZ
Tipo RDO Nombre CUENCA RDO Frecuencia 126.9 MHZ

 RADIO AYUDAS DEL AEROPUERTO
Tipo NDB Nombre Cuenca Frecuencia 221 KHZ
Tipo VOR-DME Nombre Cuenca Frecuencia 114500 KHZ



Fly Ecuador Virtual 2018 | System by VAM